Las Lajas, Argentina
Current Conditions -  °F | °C
As of 4:00 AM on Friday 24 Oct 2014 (Local Time) from SAZN Reporting Station
Clear Clear  
Wind Chill: 57°   Ceiling: Unl
Heat Index: 57°   Visibility: 6mi
Dew Point: 41°   Wind: 8mph
Humidity: 55%   Direction: 110°ESE
Pressure: 30.12"   Gusts: NA
Location:  38.52°S, 70.37°W
Report Text: SAZN 240700Z 11007KT CAVOK 14/05 Q1020
Loading
Personal Weather Stations






























Interactive Weather Map
Tropical Storm Tracking
New forecast layout! Learn more

10-Day Weather Forecast

Advertisements
Track Severe Weather on mobile